createdAt,value
2022-08-03T00:01:46.760Z,18.84
2022-08-03T00:04:14.799Z,18.77
2022-08-03T00:06:42.900Z,18.71
2022-08-03T00:09:11.768Z,18.67
2022-08-03T00:11:40.139Z,18.63
2022-08-03T00:14:08.492Z,18.63
2022-08-03T00:16:36.715Z,18.60
2022-08-03T00:19:06.190Z,18.57
2022-08-03T00:21:34.228Z,18.52
2022-08-03T00:24:02.312Z,18.48
2022-08-03T00:26:31.750Z,18.45
2022-08-03T00:28:59.775Z,18.42
2022-08-03T00:31:40.138Z,18.39
2022-08-03T00:34:17.149Z,18.36
2022-08-03T00:36:57.931Z,18.37
2022-08-03T00:39:27.327Z,18.35
2022-08-03T00:41:55.469Z,18.35
2022-08-03T00:44:23.533Z,18.35
2022-08-03T00:46:51.510Z,18.34
2022-08-03T00:49:21.002Z,18.27
2022-08-03T00:51:49.474Z,18.23
2022-08-03T00:54:17.641Z,18.23
2022-08-03T00:56:59.910Z,18.22
2022-08-03T00:59:28.875Z,18.19
2022-08-03T01:01:57.164Z,18.17
2022-08-03T01:04:26.642Z,18.17
2022-08-03T01:07:03.028Z,18.17
2022-08-03T01:09:39.379Z,18.16
2022-08-03T01:12:15.540Z,18.11
2022-08-03T01:14:50.333Z,18.09
2022-08-03T01:17:24.564Z,18.06
2022-08-03T01:20:01.944Z,17.99
2022-08-03T01:23:12.941Z,17.95
2022-08-03T01:25:56.538Z,18.06
2022-08-03T01:28:40.283Z,18.05
2022-08-03T01:31:12.842Z,18.00
2022-08-03T01:33:44.216Z,18.08
2022-08-03T01:36:15.704Z,18.09
2022-08-03T01:38:48.202Z,18.00
2022-08-03T01:41:21.314Z,17.95
2022-08-03T01:44:27.143Z,17.94
2022-08-03T01:46:47.654Z,17.88
2022-08-03T01:49:18.301Z,17.84
2022-08-03T01:51:58.471Z,17.83
2022-08-03T01:54:36.190Z,17.79
2022-08-03T01:57:05.145Z,17.76
2022-08-03T01:59:37.713Z,17.73
2022-08-03T02:02:28.677Z,17.70
2022-08-03T02:04:59.788Z,17.67
2022-08-03T02:07:29.042Z,17.65
2022-08-03T02:09:59.531Z,17.64
2022-08-03T02:12:30.003Z,17.63
2022-08-03T02:14:59.976Z,17.59
2022-08-03T02:17:39.710Z,17.57
2022-08-03T02:20:09.683Z,17.54
2022-08-03T02:22:41.152Z,17.46
2022-08-03T02:25:10.452Z,17.44
2022-08-03T02:27:43.828Z,17.41
2022-08-03T02:30:14.633Z,17.37
2022-08-03T02:32:49.880Z,17.34
2022-08-03T02:35:19.716Z,17.33
2022-08-03T02:37:53.913Z,17.27
2022-08-03T02:40:25.686Z,17.25
2022-08-03T02:42:59.093Z,17.19
2022-08-03T02:45:28.871Z,17.13
2022-08-03T02:48:02.049Z,17.07
2022-08-03T02:50:31.964Z,17.02
2022-08-03T02:53:01.274Z,16.96
2022-08-03T02:55:30.699Z,16.89
2022-08-03T02:58:01.584Z,16.81
2022-08-03T03:00:30.943Z,16.81
2022-08-03T03:03:02.758Z,16.80
2022-08-03T03:05:56.337Z,16.83
2022-08-03T03:08:26.007Z,16.88
2022-08-03T03:10:55.473Z,16.93
2022-08-03T03:13:24.387Z,16.96
2022-08-03T03:15:54.089Z,16.96
2022-08-03T03:18:25.512Z,16.95
2022-08-03T03:20:55.247Z,16.98
2022-08-03T03:23:24.622Z,16.99
2022-08-03T03:25:54.777Z,17.03
2022-08-03T03:28:23.432Z,17.04
2022-08-03T03:30:53.559Z,17.04
2022-08-03T03:33:23.556Z,17.05
2022-08-03T03:35:52.032Z,17.10
2022-08-03T03:38:20.734Z,17.13
2022-08-03T03:40:49.506Z,17.16
2022-08-03T03:43:18.882Z,17.18
2022-08-03T03:45:48.636Z,17.18
2022-08-03T03:48:16.922Z,17.16
2022-08-03T03:50:47.342Z,17.13
2022-08-03T03:53:15.873Z,17.15
2022-08-03T03:55:59.732Z,17.17
2022-08-03T03:58:32.269Z,17.17
2022-08-03T04:01:00.886Z,17.18
2022-08-03T04:03:29.097Z,17.19
2022-08-03T04:06:16.008Z,17.26
2022-08-03T04:09:15.983Z,17.36
2022-08-03T04:11:50.090Z,17.47
2022-08-03T04:14:21.204Z,17.55
2022-08-03T04:16:53.177Z,17.62
2022-08-03T04:19:27.530Z,17.71
2022-08-03T04:22:01.364Z,17.80
2022-08-03T04:24:35.207Z,17.89
2022-08-03T04:27:08.075Z,17.98
2022-08-03T04:29:44.781Z,18.08
2022-08-03T04:32:20.315Z,18.17
2022-08-03T04:34:48.631Z,18.32
2022-08-03T04:37:27.634Z,18.46
2022-08-03T04:39:59.703Z,18.63
2022-08-03T04:42:28.812Z,18.79
2022-08-03T04:45:01.343Z,18.94
2022-08-03T04:47:32.154Z,19.13
2022-08-03T04:50:01.910Z,19.29
2022-08-03T04:52:32.127Z,19.46
2022-08-03T04:55:00.312Z,19.64
2022-08-03T04:57:28.366Z,19.77
2022-08-03T05:00:02.098Z,19.90
2022-08-03T05:02:32.321Z,20.04
2022-08-03T05:05:00.915Z,20.15
2022-08-03T05:07:29.325Z,20.26
2022-08-03T05:10:14.880Z,20.34
2022-08-03T05:12:45.321Z,20.50
2022-08-03T05:15:13.866Z,20.64
2022-08-03T05:17:42.931Z,20.76
2022-08-03T05:20:12.447Z,20.89
2022-08-03T05:22:40.636Z,20.98
2022-08-03T05:25:19.231Z,21.10
2022-08-03T05:27:48.061Z,21.22
2022-08-03T05:30:26.758Z,21.30
2022-08-03T05:33:01.783Z,21.40
2022-08-03T05:35:57.499Z,21.46
2022-08-03T05:38:24.140Z,21.57
2022-08-03T05:41:22.294Z,21.68
2022-08-03T05:43:46.366Z,21.77
2022-08-03T05:46:14.685Z,21.90
2022-08-03T05:48:43.278Z,22.02
2022-08-03T05:51:12.457Z,22.08
2022-08-03T05:53:40.893Z,22.17
2022-08-03T05:56:14.085Z,22.27
2022-08-03T05:58:44.786Z,22.37
2022-08-03T06:01:13.105Z,22.50
2022-08-03T06:03:41.571Z,22.66
2022-08-03T06:06:09.832Z,22.81
2022-08-03T06:08:38.303Z,22.95
2022-08-03T06:11:06.443Z,23.06
2022-08-03T06:13:36.769Z,23.18
2022-08-03T06:16:05.333Z,23.36
2022-08-03T06:18:33.468Z,23.54
2022-08-03T06:21:14.801Z,23.71
2022-08-03T06:23:53.452Z,23.85
2022-08-03T06:26:27.907Z,23.95
2022-08-03T06:28:57.649Z,24.00
2022-08-03T06:31:33.133Z,24.08
2022-08-03T06:34:33.441Z,24.16
2022-08-03T06:36:52.228Z,24.26
2022-08-03T06:39:21.066Z,24.36
2022-08-03T06:41:52.509Z,24.38
2022-08-03T06:44:22.028Z,24.57
2022-08-03T06:46:51.226Z,24.81
2022-08-03T06:49:19.601Z,25.00
2022-08-03T06:52:06.209Z,25.06
2022-08-03T06:54:36.117Z,25.14
2022-08-03T06:57:04.819Z,25.26
2022-08-03T07:00:08.499Z,25.47
2022-08-03T07:02:22.425Z,25.71
2022-08-03T07:04:50.806Z,25.86
2022-08-03T07:07:19.348Z,26.04
2022-08-03T07:09:57.830Z,26.13
2022-08-03T07:12:28.093Z,26.25
2022-08-03T07:15:01.192Z,26.38
2022-08-03T07:17:31.402Z,26.54
2022-08-03T07:19:59.834Z,26.65
2022-08-03T07:22:28.482Z,26.71
2022-08-03T07:24:56.802Z,26.76
2022-08-03T07:27:27.019Z,26.85
2022-08-03T07:29:55.319Z,26.93
2022-08-03T07:32:25.488Z,27.02
2022-08-03T07:34:57.073Z,27.18
2022-08-03T07:37:28.512Z,27.31
2022-08-03T07:39:56.526Z,27.30
2022-08-03T07:42:24.627Z,27.32
2022-08-03T07:44:52.736Z,27.38
2022-08-03T07:47:22.803Z,27.51
2022-08-03T07:49:52.430Z,27.58
2022-08-03T07:52:38.084Z,27.63
2022-08-03T07:55:07.575Z,27.78
2022-08-03T07:57:35.647Z,27.86
2022-08-03T08:00:05.167Z,27.92
2022-08-03T08:02:33.223Z,27.99
2022-08-03T08:05:05.787Z,28.02
2022-08-03T08:07:34.371Z,28.09
2022-08-03T08:10:02.557Z,28.09
2022-08-03T08:12:30.548Z,28.09
2022-08-03T08:14:58.660Z,28.15
2022-08-03T08:17:26.617Z,28.20
2022-08-03T08:19:54.763Z,28.30
2022-08-03T08:22:30.414Z,28.45
2022-08-03T08:25:01.199Z,28.54
2022-08-03T08:28:25.302Z,28.58
2022-08-03T08:30:19.597Z,28.73
2022-08-03T08:32:48.216Z,28.77
2022-08-03T08:35:16.832Z,28.80
2022-08-03T08:37:51.268Z,28.83
2022-08-03T08:40:21.994Z,28.89
2022-08-03T08:42:59.200Z,28.99
2022-08-03T08:45:27.982Z,29.15
2022-08-03T08:48:01.877Z,29.28
2022-08-03T08:50:33.503Z,29.20
2022-08-03T08:53:04.663Z,29.16
2022-08-03T08:55:59.645Z,29.28
2022-08-03T08:58:24.409Z,29.41
2022-08-03T09:00:52.812Z,29.54
2022-08-03T09:03:25.245Z,29.57
2022-08-03T09:06:00.097Z,29.65
2022-08-03T09:08:30.494Z,29.66
2022-08-03T09:10:58.742Z,29.58
2022-08-03T09:13:26.845Z,29.59
2022-08-03T09:16:16.386Z,29.72
2022-08-03T09:18:46.430Z,29.87
2022-08-03T09:21:33.528Z,29.98
2022-08-03T09:24:08.468Z,30.15
2022-08-03T09:26:41.404Z,30.14
2022-08-03T09:29:14.889Z,30.18
2022-08-03T09:31:45.840Z,30.35
2022-08-03T09:34:16.124Z,30.50
2022-08-03T09:36:46.303Z,30.63
2022-08-03T09:39:17.428Z,30.61
2022-08-03T09:41:47.020Z,30.67
2022-08-03T09:44:24.211Z,30.75
2022-08-03T09:46:55.755Z,30.74
2022-08-03T09:49:24.371Z,30.74
2022-08-03T09:52:32.692Z,30.82
2022-08-03T09:54:42.994Z,30.87
2022-08-03T09:57:22.968Z,30.81
2022-08-03T09:59:53.928Z,30.83
2022-08-03T10:02:31.240Z,30.83
2022-08-03T10:04:59.260Z,30.84
2022-08-03T10:07:27.454Z,31.02
2022-08-03T10:09:58.466Z,31.10
2022-08-03T10:12:48.821Z,31.16
2022-08-03T10:16:23.485Z,31.20
2022-08-03T10:18:05.942Z,31.32
2022-08-03T10:20:39.018Z,31.45
2022-08-03T10:23:10.377Z,31.61
2022-08-03T10:25:43.844Z,31.83
2022-08-03T10:28:16.214Z,31.98
2022-08-03T10:30:54.136Z,32.17
2022-08-03T10:33:49.719Z,32.36
2022-08-03T10:36:16.504Z,32.39
2022-08-03T10:38:52.600Z,32.46
2022-08-03T10:41:24.370Z,32.53
2022-08-03T10:43:57.275Z,32.42
2022-08-03T10:46:27.595Z,32.35
2022-08-03T10:48:56.793Z,32.33
2022-08-03T10:51:30.528Z,32.32
2022-08-03T10:53:59.239Z,32.38
2022-08-03T10:57:08.772Z,32.43
2022-08-03T11:00:03.768Z,32.70
2022-08-03T11:03:07.173Z,32.70
2022-08-03T11:05:36.957Z,32.73
2022-08-03T11:08:32.314Z,32.83
2022-08-03T11:11:03.243Z,32.85
2022-08-03T11:13:33.968Z,32.88
2022-08-03T11:16:07.198Z,33.05
2022-08-03T11:18:36.706Z,33.33
2022-08-03T11:21:04.973Z,33.63
2022-08-03T11:24:02.616Z,33.60
2022-08-03T11:26:33.179Z,33.87
2022-08-03T11:29:30.303Z,34.16
2022-08-03T11:31:58.980Z,34.41
2022-08-03T11:34:27.582Z,34.59
2022-08-03T11:37:22.692Z,34.89
2022-08-03T11:39:54.637Z,35.24
2022-08-03T11:42:45.741Z,35.61
2022-08-03T11:45:16.142Z,36.00
2022-08-03T11:47:51.161Z,36.33
2022-08-03T11:50:21.502Z,36.58
2022-08-03T11:52:51.969Z,36.69
2022-08-03T11:55:22.278Z,36.85
2022-08-03T11:59:01.382Z,36.99
2022-08-03T12:00:40.561Z,36.82
2022-08-03T12:03:11.888Z,36.34
2022-08-03T12:05:51.415Z,35.85
2022-08-03T12:08:31.243Z,35.50
2022-08-03T12:11:00.605Z,35.44
2022-08-03T12:14:45.436Z,35.40
2022-08-03T12:16:28.829Z,35.42
2022-08-03T12:18:58.493Z,35.43
2022-08-03T12:21:26.718Z,35.34
2022-08-03T12:24:00.416Z,35.19
2022-08-03T12:26:28.876Z,35.25
2022-08-03T12:28:57.043Z,35.50
2022-08-03T12:31:26.807Z,35.65
2022-08-03T12:34:02.876Z,35.85
2022-08-03T12:36:32.620Z,36.18
2022-08-03T12:39:02.456Z,36.55
2022-08-03T12:41:35.400Z,36.96
2022-08-03T12:44:04.690Z,37.41
2022-08-03T12:46:35.835Z,37.88
2022-08-03T12:49:11.277Z,38.35
2022-08-03T12:51:57.237Z,38.80
2022-08-03T12:54:27.182Z,39.07
2022-08-03T12:56:59.453Z,39.12
2022-08-03T12:59:34.922Z,39.03
2022-08-03T13:02:09.688Z,39.00
2022-08-03T13:04:38.177Z,38.99
2022-08-03T13:07:12.629Z,38.94
2022-08-03T13:09:44.296Z,39.03
2022-08-03T13:12:14.121Z,39.87
2022-08-03T13:14:43.260Z,41.16
2022-08-03T13:17:13.179Z,42.43
2022-08-03T13:19:41.833Z,43.52
2022-08-03T13:22:14.266Z,44.68
2022-08-03T13:24:42.967Z,45.75
2022-08-03T13:28:01.129Z,46.55
2022-08-03T13:30:00.059Z,47.88
2022-08-03T13:32:29.509Z,48.99
2022-08-03T13:34:57.536Z,49.82
2022-08-03T13:37:25.979Z,50.25
2022-08-03T13:39:58.697Z,50.66
2022-08-03T13:42:29.952Z,51.17
2022-08-03T13:44:58.102Z,52.02
2022-08-03T13:47:26.282Z,52.36
2022-08-03T13:50:01.437Z,52.78
2022-08-03T13:52:35.603Z,53.24
2022-08-03T13:55:06.994Z,54.13
2022-08-03T13:58:06.522Z,55.02
2022-08-03T14:00:28.995Z,55.55
2022-08-03T14:03:05.094Z,56.05
2022-08-03T14:05:38.398Z,56.54
2022-08-03T14:08:07.362Z,56.99
2022-08-03T14:10:36.752Z,57.43
2022-08-03T14:13:05.520Z,57.96
2022-08-03T14:15:37.856Z,58.38
2022-08-03T14:18:12.754Z,58.70
2022-08-03T14:20:50.059Z,59.16
2022-08-03T14:23:18.689Z,58.82
2022-08-03T14:25:51.705Z,57.18
2022-08-03T14:28:22.693Z,55.34
2022-08-03T14:30:51.394Z,53.54
2022-08-03T14:33:19.581Z,52.36
2022-08-03T14:35:49.446Z,50.21
2022-08-03T14:38:18.477Z,48.30
2022-08-03T14:40:47.142Z,46.59
2022-08-03T14:43:15.472Z,45.07
2022-08-03T14:45:45.363Z,43.74
2022-08-03T14:50:32.571Z,42.60
2022-08-03T14:51:03.422Z,41.68
2022-08-03T14:53:31.455Z,41.06
2022-08-03T14:55:59.605Z,40.44
2022-08-03T14:58:27.959Z,40.20
2022-08-03T15:00:57.256Z,40.96
2022-08-03T15:03:26.403Z,41.86
2022-08-03T15:05:55.715Z,43.61
2022-08-03T15:08:26.997Z,45.81
2022-08-03T15:10:55.709Z,47.95
2022-08-03T15:13:25.388Z,48.96
2022-08-03T15:15:53.672Z,47.92
2022-08-03T15:18:21.722Z,46.49
2022-08-03T15:20:50.915Z,45.77
2022-08-03T15:23:19.949Z,45.14
2022-08-03T15:26:30.240Z,44.20
2022-08-03T15:28:37.889Z,43.07
2022-08-03T15:31:06.947Z,42.26
2022-08-03T15:33:35.357Z,41.59
2022-08-03T15:36:04.204Z,40.92
2022-08-03T15:38:32.203Z,40.32
2022-08-03T15:41:01.751Z,39.79
2022-08-03T15:43:29.899Z,39.37
2022-08-03T15:46:27.677Z,39.04
2022-08-03T15:48:46.868Z,39.76
2022-08-03T15:51:15.284Z,40.84
2022-08-03T15:53:43.428Z,42.34
2022-08-03T15:56:16.800Z,43.55
2022-08-03T15:59:10.751Z,44.45
2022-08-03T16:01:34.979Z,43.92
2022-08-03T16:04:03.109Z,43.02
2022-08-03T16:06:35.478Z,42.08
2022-08-03T16:09:23.949Z,41.14
2022-08-03T16:11:56.351Z,40.16
2022-08-03T16:14:32.350Z,39.42
2022-08-03T16:17:01.502Z,38.72
2022-08-03T16:19:29.435Z,38.22
2022-08-03T16:21:57.419Z,38.08
2022-08-03T16:24:27.896Z,37.80
2022-08-03T16:26:58.061Z,37.67
2022-08-03T16:29:28.623Z,37.47
2022-08-03T16:31:56.712Z,37.89
2022-08-03T16:34:24.848Z,39.06
2022-08-03T16:36:54.696Z,40.26
2022-08-03T16:39:22.985Z,40.79
2022-08-03T16:41:53.779Z,40.38
2022-08-03T16:44:31.765Z,39.69
2022-08-03T16:46:59.905Z,39.01
2022-08-03T16:49:53.713Z,38.34
2022-08-03T16:52:16.818Z,37.75
2022-08-03T16:54:52.551Z,37.20
2022-08-03T16:57:55.639Z,36.67
2022-08-03T17:00:32.874Z,36.58
2022-08-03T17:03:18.954Z,36.36
2022-08-03T17:05:52.951Z,35.88
2022-08-03T17:08:27.147Z,35.50
2022-08-03T17:10:56.308Z,35.03
2022-08-03T17:13:38.801Z,34.61
2022-08-03T17:16:12.159Z,34.16
2022-08-03T17:18:50.586Z,33.74
2022-08-03T17:21:24.241Z,33.31
2022-08-03T17:23:58.728Z,32.90
2022-08-03T17:26:30.674Z,32.52
2022-08-03T17:29:12.925Z,32.23
2022-08-03T17:31:49.359Z,31.97
2022-08-03T17:34:18.821Z,31.72
2022-08-03T17:37:05.386Z,31.40
2022-08-03T17:39:59.084Z,31.14
2022-08-03T17:42:38.848Z,30.89
2022-08-03T17:45:07.405Z,30.69
2022-08-03T17:47:42.615Z,30.49
2022-08-03T17:50:24.322Z,30.27
2022-08-03T17:53:07.581Z,29.98
2022-08-03T17:55:59.688Z,29.78
2022-08-03T17:58:52.602Z,29.58
2022-08-03T18:02:06.181Z,29.41
2022-08-03T18:04:40.488Z,29.14
2022-08-03T18:07:12.630Z,28.91
2022-08-03T18:10:04.899Z,28.69
2022-08-03T18:12:45.355Z,28.55
2022-08-03T18:15:21.321Z,28.48
2022-08-03T18:20:45.670Z,28.40
2022-08-03T18:23:25.243Z,28.38
2022-08-03T18:26:06.876Z,28.39
2022-08-03T18:28:38.411Z,28.35
2022-08-03T18:31:07.454Z,28.27
2022-08-03T18:34:18.213Z,28.16
2022-08-03T18:36:31.787Z,27.97
2022-08-03T18:39:19.840Z,27.81
2022-08-03T18:41:48.032Z,27.70
2022-08-03T18:44:52.511Z,27.64
2022-08-03T18:47:19.213Z,27.56
2022-08-03T18:49:58.715Z,27.49
2022-08-03T18:52:37.325Z,27.41
2022-08-03T18:55:20.814Z,27.30
2022-08-03T18:58:05.334Z,27.18
2022-08-03T19:00:54.220Z,27.09
2022-08-03T19:03:42.807Z,26.98
2022-08-03T19:06:20.286Z,26.89
2022-08-03T19:08:55.685Z,26.78
2022-08-03T19:11:27.855Z,26.64
2022-08-03T19:14:00.354Z,26.53
2022-08-03T19:16:35.968Z,26.43
2022-08-03T19:19:11.035Z,26.31
2022-08-03T19:21:42.816Z,26.24
2022-08-03T19:24:17.286Z,26.12
2022-08-03T19:26:52.234Z,26.05
2022-08-03T19:29:24.496Z,26.00
2022-08-03T19:32:17.606Z,25.93
2022-08-03T19:34:46.630Z,25.86
2022-08-03T19:37:15.649Z,25.76
2022-08-03T19:39:45.244Z,25.69
2022-08-03T19:42:31.145Z,25.63
2022-08-03T19:45:03.196Z,25.58
2022-08-03T19:47:46.740Z,25.49
2022-08-03T19:50:14.927Z,25.42
2022-08-03T19:52:46.202Z,25.36
2022-08-03T19:55:17.143Z,25.30
2022-08-03T19:57:49.390Z,25.25
2022-08-03T20:00:19.980Z,25.22
2022-08-03T20:02:55.089Z,25.10
2022-08-03T20:05:23.300Z,25.00
2022-08-03T20:07:51.449Z,24.89
2022-08-03T20:10:21.356Z,24.80
2022-08-03T20:12:50.078Z,24.74
2022-08-03T20:15:30.945Z,24.71
2022-08-03T20:18:00.858Z,24.67
2022-08-03T20:20:30.971Z,24.63
2022-08-03T20:23:01.303Z,24.58
2022-08-03T20:25:37.971Z,24.50
2022-08-03T20:28:13.499Z,24.40
2022-08-03T20:30:43.868Z,24.32
2022-08-03T20:33:12.340Z,24.24
2022-08-03T20:35:48.935Z,24.16
2022-08-03T20:38:18.636Z,24.09
2022-08-03T20:40:48.740Z,24.00
2022-08-03T20:43:16.982Z,23.94
2022-08-03T20:45:59.099Z,23.88
2022-08-03T20:48:37.508Z,23.86
2022-08-03T20:51:19.764Z,23.80
2022-08-03T20:53:59.524Z,23.73
2022-08-03T20:56:34.153Z,23.63
2022-08-03T20:59:04.208Z,23.54
2022-08-03T21:01:36.224Z,23.48
2022-08-03T21:04:07.040Z,23.42
2022-08-03T21:06:45.498Z,23.36
2022-08-03T21:09:19.682Z,23.31
2022-08-03T21:11:51.544Z,23.27
2022-08-03T21:13:05.926Z,28.42
2022-08-03T21:14:24.231Z,23.25
2022-08-03T21:16:54.095Z,23.23
2022-08-03T21:19:23.306Z,23.21
2022-08-03T21:21:51.673Z,23.18
2022-08-03T21:24:24.675Z,23.16
2022-08-03T21:26:55.729Z,23.13
2022-08-03T21:29:24.446Z,23.07
2022-08-03T21:31:52.621Z,23.01
2022-08-03T21:34:21.963Z,22.94
2022-08-03T21:36:50.456Z,22.83
2022-08-03T21:39:18.771Z,22.75
2022-08-03T21:41:47.378Z,22.64
2022-08-03T21:44:25.156Z,22.54
2022-08-03T21:46:58.705Z,22.44
2022-08-03T21:50:04.786Z,22.31
2022-08-03T21:52:22.133Z,22.18
2022-08-03T21:54:52.120Z,22.06
2022-08-03T21:57:23.373Z,21.99
2022-08-03T21:59:56.644Z,21.93
2022-08-03T22:02:31.322Z,21.86
2022-08-03T22:05:00.393Z,21.84
2022-08-03T22:07:33.736Z,21.79
2022-08-03T22:10:05.637Z,21.77
2022-08-03T22:12:34.220Z,21.72
2022-08-03T22:15:06.405Z,21.69
2022-08-03T22:17:55.173Z,21.63
2022-08-03T22:20:25.626Z,21.56
2022-08-03T22:22:57.062Z,21.49
2022-08-03T22:25:29.051Z,21.45
2022-08-03T22:27:58.348Z,21.45
2022-08-03T22:30:28.232Z,21.45
2022-08-03T22:32:57.708Z,21.42
2022-08-03T22:35:27.833Z,21.43
2022-08-03T22:37:58.485Z,21.44
2022-08-03T22:40:28.424Z,21.44
2022-08-03T22:42:57.403Z,21.45
2022-08-03T22:46:06.171Z,21.44
2022-08-03T22:48:17.912Z,21.43
2022-08-03T22:50:47.195Z,21.43
2022-08-03T22:53:19.349Z,21.41
2022-08-03T22:55:49.086Z,21.37
2022-08-03T22:58:17.589Z,21.30
2022-08-03T23:00:53.798Z,21.23
2022-08-03T23:03:59.038Z,21.11
2022-08-03T23:06:16.553Z,21.01
2022-08-03T23:08:47.402Z,20.94
2022-08-03T23:11:18.896Z,20.83
2022-08-03T23:13:48.501Z,20.76
2022-08-03T23:16:29.299Z,20.69
2022-08-03T23:19:06.598Z,20.60
2022-08-03T23:21:53.534Z,20.55
2022-08-03T23:24:30.435Z,20.50
2022-08-03T23:26:59.240Z,20.48
2022-08-03T23:29:27.791Z,20.46
2022-08-03T23:31:57.397Z,20.43
2022-08-03T23:34:45.883Z,20.38
2022-08-03T23:37:15.579Z,20.32
2022-08-03T23:39:45.780Z,20.25
2022-08-03T23:42:15.009Z,20.12
2022-08-03T23:44:45.287Z,20.02
2022-08-03T23:47:13.325Z,19.95
2022-08-03T23:49:43.174Z,19.93
2022-08-03T23:52:16.607Z,19.94
2022-08-03T23:54:59.412Z,19.90
2022-08-03T23:57:34.053Z,19.82
